首页
METAR-TAF:

METAR-TAF

机场 :

Kuujjuaq, 魁北克, 加拿大

纬度: 58-06N, 经度: 068-25W, 海拔: 37米

当前天气观测

该预报发布于20分钟前的15:00 UTC
风速6节,风向西转西北,在西转西南北转西北之间变化
温度 9°C
湿度 81%
气压 1002 hPa
能見度: 24.1公里
少量云层高于800英尺
少量云层高于1500英尺
多云层高于2500英尺
阴天层高于4500英尺

METAR: CYVP 241500Z 30006KT 250V330 15SM FEW008 FEW015 BKN025 OVC045 09/06 A2959 RMK SF1SC2SC3SC3 SF TR SLP026

时间: 11:20 (15:20 UTC)

预报

该预报发布于3小时和40分钟前的11:40 UTC
预报有效从24日的 12点(UTC)到 24日的 24点(UTC)
风速3节,风向多变
能見度: 10公里
少量云层高于600英尺
阴天层高于4000英尺
短暂存在
从 24日的 12点(UTC)到 24日的 15点(UTC)
能見度: 6.4公里
多云层高于600英尺
阴天层高于2000英尺
小阵雨, 轻雾
从 24日的 1500点(UTC)
风速8节,风向北转西北
能見度: 10公里
多云层高于2500英尺
短暂存在
从 24日的 15点(UTC)到 24日的 21点(UTC)
能見度: 10公里
多云层高于2000英尺
小阵雨
从 24日的 2100点(UTC)
风速10节,风向北转西北
能見度: 10公里
多云层高于5000英尺

TAF: CYVP 241140Z 2412/2424 VRB03KT P6SM FEW006 OVC040 TEMPO 2412/2415 4SM -SHRA BR BKN006 OVC020 FM241500 33008KT P6SM BKN025 TEMPO 2415/2421 P6SM -SHRA BKN020 FM242100 34010KT P6SM BKN050 RMK NXT FCST BY 241800Z

超过4000个机场的气象观测和天气预报(METAR&TAF报告)。

可查询的气象台以黄色和红色小点在地图上表示。

将鼠标移到小点上方,可查看气象台名称。

然后点击查看天气观测和预报。

如需切换地图:点击带黑十字的绿色按钮放大地图;点击带横线的绿色按钮缩小地图;或者点击绿色箭头查看邻近地区的地图。


METAR-TAF: